Fairlawn, Ohio
Current Conditions -  °F | °C
As of 9:54 PM on Sunday 23 Nov 2014 (Local Time) from KAKR Reporting Station
Light Rain Light Rain  
Wind Chill: 53°   Ceiling: 8000
Heat Index: 53°   Visibility: 8mi
Dew Point: 48°   Wind: 12mph
Humidity: 83%   Direction: 150°SSE
Pressure: 29.5"   Gusts: 21mph
Location:  41.0812°N, 81.5191°W
Report Text: KAKR 240254Z AUTO 15010G18KT 110V180 8SM -RA SCT055 BKN080 OVC100 12/09 A2950 RMK AO2 SLP989 P0006 60008 T01170089 58047
Loading
Personal Weather Stations






























Interactive Weather Map New forecast layout! Learn more

10-Day Weather Forecast

Advertisements
Track Severe Weather on mobile